createdAt,value
2023-10-29T00:00:31.483Z,98319.53
2023-10-29T00:02:59.947Z,98328.50
2023-10-29T00:05:28.083Z,98335.91
2023-10-29T00:07:56.075Z,98334.94
2023-10-29T00:10:24.134Z,98338.28
2023-10-29T00:12:52.054Z,98339.16
2023-10-29T00:15:21.366Z,98349.03
2023-10-29T00:17:50.301Z,98354.19
2023-10-29T00:20:18.395Z,98357.28
2023-10-29T00:22:46.385Z,98348.72
2023-10-29T00:25:14.277Z,98355.06
2023-10-29T00:27:42.243Z,98348.72
2023-10-29T00:30:10.849Z,98351.38
2023-10-29T00:32:40.216Z,98348.72
2023-10-29T00:35:08.781Z,98350.34
2023-10-29T00:37:36.773Z,98351.97
2023-10-29T00:40:05.348Z,98353.59
2023-10-29T00:42:33.320Z,98358.47
2023-10-29T00:45:01.533Z,98374.00
2023-10-29T00:47:29.767Z,98376.81
2023-10-29T00:49:59.157Z,98379.06
2023-10-29T00:52:27.883Z,98389.50
2023-10-29T00:54:55.850Z,98391.69
2023-10-29T00:57:23.821Z,98389.13
2023-10-29T00:59:51.772Z,98386.31
2023-10-29T01:02:21.291Z,98384.69
2023-10-29T01:04:49.538Z,98367.69
2023-10-29T01:07:19.659Z,98374.66
2023-10-29T01:09:47.603Z,98370.53
2023-10-29T01:12:17.479Z,98373.38
2023-10-29T01:14:46.366Z,98383.94
2023-10-29T01:17:14.488Z,98366.31
2023-10-29T01:19:42.433Z,98372.78
2023-10-29T01:22:11.137Z,98374.38
2023-10-29T01:24:40.655Z,98378.00
2023-10-29T01:27:09.170Z,98374.91
2023-10-29T01:29:37.251Z,98384.53
2023-10-29T01:32:05.666Z,98381.25
2023-10-29T01:34:33.724Z,98384.75
2023-10-29T01:37:01.626Z,98385.13
2023-10-29T01:39:29.599Z,98381.19
2023-10-29T01:41:59.355Z,98384.69
2023-10-29T01:44:27.499Z,98381.41
2023-10-29T01:46:55.509Z,98381.66
2023-10-29T01:49:23.422Z,98384.53
2023-10-29T01:51:51.806Z,98385.41
2023-10-29T01:54:19.765Z,98393.25
2023-10-29T01:56:47.709Z,98390.88
2023-10-29T01:59:17.328Z,98391.75
2023-10-29T02:01:45.309Z,98396.25
2023-10-29T02:04:13.589Z,98399.56
2023-10-29T02:06:41.682Z,98410.03
2023-10-29T02:09:10.329Z,98397.97
2023-10-29T02:11:39.207Z,98408.25
2023-10-29T02:14:07.510Z,98412.56
2023-10-29T02:16:36.901Z,98399.09
2023-10-29T02:19:05.407Z,98407.28
2023-10-29T02:21:33.365Z,98407.47
2023-10-29T02:24:02.858Z,98419.38
2023-10-29T02:26:30.896Z,98432.88
2023-10-29T02:28:58.819Z,98425.94
2023-10-29T02:31:26.810Z,98429.22
2023-10-29T02:33:54.790Z,98424.13
2023-10-29T02:36:23.133Z,98427.19
2023-10-29T02:38:51.083Z,98437.22
2023-10-29T02:41:20.519Z,98431.25
2023-10-29T02:43:48.498Z,98422.19
2023-10-29T02:46:16.423Z,98441.22
2023-10-29T02:48:44.447Z,98422.00
2023-10-29T02:51:13.215Z,98415.66
2023-10-29T02:53:41.541Z,98410.34
2023-10-29T02:56:09.558Z,98405.44
2023-10-29T02:58:38.913Z,98405.28
2023-10-29T03:01:08.186Z,98410.41
2023-10-29T03:03:36.751Z,98410.47
2023-10-29T03:06:06.267Z,98408.44
2023-10-29T03:08:34.504Z,98412.13
2023-10-29T03:11:02.625Z,98404.41
2023-10-29T03:13:30.565Z,98396.25
2023-10-29T03:15:59.892Z,98389.94
2023-10-29T03:18:30.514Z,98382.78
2023-10-29T03:20:58.674Z,98381.53
2023-10-29T03:23:26.625Z,98379.94
2023-10-29T03:25:55.434Z,98371.34
2023-10-29T03:28:23.349Z,98365.06
2023-10-29T03:30:51.287Z,98367.91
2023-10-29T03:33:20.722Z,98368.94
2023-10-29T03:35:48.909Z,98374.66
2023-10-29T03:38:16.911Z,98369.34
2023-10-29T03:40:45.003Z,98381.59
2023-10-29T03:43:12.970Z,98379.59
2023-10-29T03:45:40.940Z,98373.03
2023-10-29T03:48:08.993Z,98390.22
2023-10-29T03:50:38.359Z,98387.59
2023-10-29T03:53:06.337Z,98386.31
2023-10-29T03:55:34.285Z,98396.34
2023-10-29T03:58:02.196Z,98395.91
2023-10-29T04:00:30.094Z,98408.78
2023-10-29T04:02:59.720Z,98401.63
2023-10-29T04:05:27.790Z,98407.94
2023-10-29T04:07:57.074Z,98413.06
2023-10-29T04:10:25.052Z,98404.88
2023-10-29T04:12:52.965Z,98398.31
2023-10-29T04:15:20.936Z,98407.91
2023-10-29T04:17:49.635Z,98402.41
2023-10-29T04:20:17.719Z,98400.94
2023-10-29T04:22:45.609Z,98396.25
2023-10-29T04:25:14.904Z,98395.41
2023-10-29T04:27:42.785Z,98390.56
2023-10-29T04:30:11.588Z,98389.72
2023-10-29T04:32:39.595Z,98389.28
2023-10-29T04:35:08.244Z,98391.75
2023-10-29T04:37:36.184Z,98399.50
2023-10-29T04:40:05.207Z,98407.28
2023-10-29T04:42:34.466Z,98409.69
2023-10-29T04:45:02.489Z,98417.47
2023-10-29T04:47:30.511Z,98412.53
2023-10-29T04:49:58.457Z,98404.75
2023-10-29T04:52:26.552Z,98408.00
2023-10-29T04:54:54.486Z,98405.94
2023-10-29T04:57:22.632Z,98402.25
2023-10-29T04:59:53.494Z,98398.16
2023-10-29T05:02:23.435Z,98395.06
2023-10-29T05:04:52.137Z,98402.16
2023-10-29T05:07:20.836Z,98407.47
2023-10-29T05:09:48.879Z,98400.97
2023-10-29T05:12:17.159Z,98400.97
2023-10-29T05:14:45.154Z,98402.16
2023-10-29T05:17:14.456Z,98397.47
2023-10-29T05:19:42.377Z,98400.06
2023-10-29T05:22:10.302Z,98399.66
2023-10-29T05:24:38.219Z,98402.09
2023-10-29T05:27:06.241Z,98386.53
2023-10-29T05:29:34.904Z,98391.63
2023-10-29T05:32:02.906Z,98384.25
2023-10-29T05:34:32.268Z,98387.94
2023-10-29T05:37:00.395Z,98387.34
2023-10-29T05:39:28.320Z,98387.34
2023-10-29T05:41:56.280Z,98389.84
2023-10-29T05:44:24.172Z,98396.03
2023-10-29T05:46:52.081Z,98398.50
2023-10-29T05:49:19.981Z,98384.44
2023-10-29T05:51:50.932Z,98378.53
2023-10-29T05:54:19.944Z,98370.75
2023-10-29T05:56:48.048Z,98368.31
2023-10-29T05:59:15.983Z,98377.53
2023-10-29T06:01:43.941Z,98370.59
2023-10-29T06:04:11.980Z,98386.31
2023-10-29T06:06:39.967Z,98381.00
2023-10-29T06:09:20.954Z,98383.88
2023-10-29T06:11:51.627Z,98368.72
2023-10-29T06:14:19.614Z,98358.91
2023-10-29T06:16:47.874Z,98370.38
2023-10-29T06:19:15.796Z,98371.84
2023-10-29T06:21:43.752Z,98367.53
2023-10-29T06:24:13.769Z,98372.84
2023-10-29T06:26:41.797Z,98363.03
2023-10-29T06:29:09.996Z,98360.59
2023-10-29T06:31:38.011Z,98352.84
2023-10-29T06:34:05.962Z,98348.78
2023-10-29T06:36:34.815Z,98352.47
2023-10-29T06:39:02.804Z,98351.03
2023-10-29T06:41:32.267Z,98353.09
2023-10-29T06:44:00.205Z,98353.31
2023-10-29T06:46:28.256Z,98358.03
2023-10-29T06:48:56.198Z,98354.53
2023-10-29T06:51:24.103Z,98362.72
2023-10-29T06:53:52.076Z,98360.28
2023-10-29T06:56:20.067Z,98373.78
2023-10-29T06:58:49.304Z,98361.53
2023-10-29T07:01:17.269Z,98361.53
2023-10-29T07:03:45.388Z,98363.97
2023-10-29T07:06:15.307Z,98359.50
2023-10-29T07:08:43.257Z,98365.59
2023-10-29T07:11:11.197Z,98365.81
2023-10-29T07:13:39.493Z,98364.19
2023-10-29T07:16:10.161Z,98366.84
2023-10-29T07:18:38.421Z,98377.47
2023-10-29T07:21:07.189Z,98372.97
2023-10-29T07:23:35.138Z,98379.91
2023-10-29T07:26:03.053Z,98384.41
2023-10-29T07:28:31.082Z,98382.78
2023-10-29T07:30:58.991Z,98395.03
2023-10-29T07:33:28.345Z,98389.72
2023-10-29T07:35:56.419Z,98393.41
2023-10-29T07:38:24.457Z,98383.97
2023-10-29T07:40:52.429Z,98380.28
2023-10-29T07:43:20.321Z,98382.94
2023-10-29T07:45:49.131Z,98390.50
2023-10-29T07:48:18.557Z,98386.84
2023-10-29T07:50:52.478Z,98392.53
2023-10-29T07:53:20.875Z,98391.28
2023-10-29T07:55:48.771Z,98400.91
2023-10-29T07:58:16.714Z,98400.66
2023-10-29T08:00:44.850Z,98393.31
2023-10-29T08:03:12.951Z,98401.06
2023-10-29T08:05:41.388Z,98394.53
2023-10-29T08:08:10.686Z,98389.19
2023-10-29T08:10:38.938Z,98393.25
2023-10-29T08:13:10.681Z,98394.47
2023-10-29T08:15:40.001Z,98396.09
2023-10-29T08:18:09.154Z,98402.63
2023-10-29T08:20:37.231Z,98403.81
2023-10-29T08:23:05.235Z,98394.38
2023-10-29T08:25:36.873Z,98392.72
2023-10-29T08:28:05.116Z,98383.66
2023-10-29T08:30:33.332Z,98384.41
2023-10-29T08:33:01.387Z,98390.72
2023-10-29T08:35:29.435Z,98383.94
2023-10-29T08:37:57.830Z,98390.66
2023-10-29T08:40:25.758Z,98389.22
2023-10-29T08:42:55.037Z,98383.88
2023-10-29T08:45:38.464Z,98387.13
2023-10-29T08:48:10.223Z,98397.34
2023-10-29T08:50:38.208Z,98396.31
2023-10-29T08:53:06.396Z,98392.78
2023-10-29T08:55:35.986Z,98397.69
2023-10-29T08:58:05.371Z,98418.28
2023-10-29T09:00:45.244Z,98400.03
2023-10-29T09:03:14.921Z,98404.94
2023-10-29T09:05:43.169Z,98395.25
2023-10-29T09:08:13.415Z,98408.09
2023-10-29T09:10:44.392Z,98400.44
2023-10-29T09:13:14.540Z,98408.50
2023-10-29T09:15:44.115Z,98403.25
2023-10-29T09:18:12.253Z,98401.50
2023-10-29T09:20:40.818Z,98393.78
2023-10-29T09:23:08.865Z,98392.22
2023-10-29T09:25:36.853Z,98402.31
2023-10-29T09:28:06.782Z,98403.44
2023-10-29T09:30:36.195Z,98398.00
2023-10-29T09:33:04.342Z,98407.72
2023-10-29T09:35:33.293Z,98404.50
2023-10-29T09:38:01.239Z,98399.66
2023-10-29T09:40:29.190Z,98393.75
2023-10-29T09:42:57.273Z,98406.78
2023-10-29T09:45:26.319Z,98404.38
2023-10-29T09:47:56.072Z,98395.44
2023-10-29T09:50:24.809Z,98401.50
2023-10-29T09:52:53.171Z,98411.00
2023-10-29T09:55:21.490Z,98405.13
2023-10-29T09:57:56.571Z,98418.47
2023-10-29T10:04:51.570Z,98422.06
2023-10-29T10:07:49.049Z,98433.59
2023-10-29T10:10:49.367Z,98432.41
2023-10-29T10:13:21.262Z,98425.81
2023-10-29T10:15:54.692Z,98432.63
2023-10-29T10:18:23.819Z,98418.66
2023-10-29T10:26:11.521Z,98405.53
2023-10-29T10:30:36.119Z,98411.88
2023-10-29T10:33:18.063Z,98410.47
2023-10-29T10:35:55.845Z,98410.69
2023-10-29T10:49:31.062Z,98432.19
2023-10-29T10:52:15.303Z,98434.38
2023-10-29T10:56:22.613Z,98444.97
2023-10-29T11:04:28.502Z,98445.88
2023-10-29T11:07:15.449Z,98448.81
2023-10-29T11:27:04.585Z,98469.56
2023-10-29T11:29:56.680Z,98477.56
2023-10-29T11:50:21.310Z,98492.16
2023-10-29T11:58:56.826Z,98481.06
2023-10-29T12:01:29.617Z,98490.06
2023-10-29T12:03:59.506Z,98482.63
2023-10-29T12:06:41.667Z,98487.59
2023-10-29T12:09:20.498Z,98472.50
2023-10-29T12:11:50.666Z,98476.22
2023-10-29T12:14:42.992Z,98483.22
2023-10-29T12:17:13.152Z,98475.75
2023-10-29T12:19:51.469Z,98477.84
2023-10-29T12:22:28.333Z,98480.63
2023-10-29T12:25:14.060Z,98484.53
2023-10-29T12:27:46.847Z,98478.19
2023-10-29T12:30:42.502Z,98483.66
2023-10-29T12:33:24.244Z,98487.28
2023-10-29T12:35:55.024Z,98491.41
2023-10-29T12:38:32.464Z,98482.78
2023-10-29T12:41:06.548Z,98484.34
2023-10-29T12:43:39.975Z,98482.03
2023-10-29T12:46:18.422Z,98485.53
2023-10-29T12:49:06.300Z,98475.56
2023-10-29T12:51:41.776Z,98477.00
2023-10-29T12:54:19.792Z,98480.81
2023-10-29T12:57:01.669Z,98484.63
2023-10-29T12:59:36.888Z,98493.88
2023-10-29T13:02:25.225Z,98488.78
2023-10-29T13:04:55.602Z,98504.44
2023-10-29T13:07:29.995Z,98507.78
2023-10-29T13:10:09.154Z,98495.84
2023-10-29T13:12:39.731Z,98506.88
2023-10-29T13:15:17.993Z,98486.59
2023-10-29T13:18:02.204Z,98493.81
2023-10-29T13:20:32.488Z,98504.44
2023-10-29T13:23:03.740Z,98494.31
2023-10-29T13:25:33.503Z,98496.25
2023-10-29T13:28:05.407Z,98497.97
2023-10-29T13:30:38.872Z,98505.84
2023-10-29T13:33:11.626Z,98505.28
2023-10-29T13:35:57.637Z,98512.44
2023-10-29T13:38:31.336Z,98501.63
2023-10-29T13:41:02.638Z,98494.44
2023-10-29T13:43:33.010Z,98502.41
2023-10-29T13:46:15.223Z,98505.81
2023-10-29T13:48:57.724Z,98505.50
2023-10-29T13:51:33.433Z,98515.97
2023-10-29T13:54:05.351Z,98508.66
2023-10-29T13:56:37.631Z,98516.31
2023-10-29T13:59:07.852Z,98518.97
2023-10-29T14:01:44.719Z,98527.09
2023-10-29T14:04:18.311Z,98531.81
2023-10-29T14:06:53.391Z,98544.63
2023-10-29T14:09:37.185Z,98541.94
2023-10-29T14:12:15.253Z,98550.31
2023-10-29T14:14:52.280Z,98536.44
2023-10-29T14:17:37.138Z,98531.88
2023-10-29T14:20:12.580Z,98546.25
2023-10-29T14:22:42.835Z,98537.72
2023-10-29T14:26:18.924Z,98536.00
2023-10-29T14:28:47.025Z,98543.28
2023-10-29T14:31:18.720Z,98546.66
2023-10-29T14:33:52.496Z,98553.06
2023-10-29T14:36:24.421Z,98552.69
2023-10-29T14:38:53.806Z,98561.22
2023-10-29T14:41:24.272Z,98561.91
2023-10-29T14:43:59.547Z,98543.59
2023-10-29T14:46:30.863Z,98567.78
2023-10-29T14:49:05.473Z,98559.72
2023-10-29T14:51:41.439Z,98570.66
2023-10-29T14:54:12.537Z,98569.75
2023-10-29T14:56:53.019Z,98570.38
2023-10-29T14:59:32.217Z,98564.56
2023-10-29T15:02:07.913Z,98585.59
2023-10-29T15:04:39.964Z,98574.44
2023-10-29T15:07:15.863Z,98577.63
2023-10-29T15:09:48.479Z,98585.31
2023-10-29T15:12:21.280Z,98589.38
2023-10-29T15:14:54.286Z,98583.22
2023-10-29T15:17:25.626Z,98575.06
2023-10-29T15:20:08.061Z,98582.53
2023-10-29T15:22:44.322Z,98565.28
2023-10-29T15:25:19.213Z,98568.91
2023-10-29T15:27:48.218Z,98567.63
2023-10-29T15:30:20.576Z,98575.19
2023-10-29T15:32:55.155Z,98574.13
2023-10-29T15:35:26.017Z,98571.56
2023-10-29T15:38:01.863Z,98572.41
2023-10-29T15:40:35.217Z,98588.09
2023-10-29T15:43:05.795Z,98577.38
2023-10-29T15:45:38.235Z,98588.56
2023-10-29T15:48:10.334Z,98601.81
2023-10-29T15:50:40.683Z,98592.41
2023-10-29T15:53:10.099Z,98601.56
2023-10-29T15:55:38.032Z,98603.66
2023-10-29T16:02:51.830Z,98609.94
2023-10-29T16:05:20.724Z,98607.63
2023-10-29T16:07:48.793Z,98606.69
2023-10-29T16:10:18.122Z,98609.81
2023-10-29T16:12:47.224Z,98599.72
2023-10-29T16:15:15.252Z,98598.75
2023-10-29T16:17:43.266Z,98602.97
2023-10-29T16:20:12.126Z,98612.03
2023-10-29T16:22:40.133Z,98609.25
2023-10-29T16:25:09.411Z,98610.28
2023-10-29T16:27:38.760Z,98624.66
2023-10-29T16:30:08.773Z,98634.91
2023-10-29T16:32:36.870Z,98628.47
2023-10-29T16:35:05.256Z,98641.00
2023-10-29T16:37:33.245Z,98638.97
2023-10-29T16:40:01.161Z,98635.84
2023-10-29T16:42:29.146Z,98630.78
2023-10-29T16:44:58.476Z,98635.41
2023-10-29T16:47:26.496Z,98635.84
2023-10-29T16:49:54.461Z,98638.16
2023-10-29T16:52:22.433Z,98647.22
2023-10-29T16:54:50.927Z,98641.06
2023-10-29T16:57:19.462Z,98641.63
2023-10-29T16:59:47.638Z,98639.75
2023-10-29T17:02:17.155Z,98641.63
2023-10-29T17:04:45.171Z,98655.34
2023-10-29T17:07:13.414Z,98656.16
2023-10-29T17:09:41.650Z,98659.88
2023-10-29T17:12:10.233Z,98656.25
2023-10-29T17:14:38.218Z,98651.00
2023-10-29T17:17:06.376Z,98662.13
2023-10-29T17:19:35.734Z,98668.13
2023-10-29T17:22:03.843Z,98665.97
2023-10-29T17:24:31.946Z,98664.72
2023-10-29T17:26:59.963Z,98654.13
2023-10-29T17:30:05.030Z,98670.16
2023-10-29T17:32:33.108Z,98664.06
2023-10-29T17:35:03.210Z,98671.03
2023-10-29T17:37:31.206Z,98672.66
2023-10-29T17:39:59.106Z,98677.97
2023-10-29T17:42:28.830Z,98677.41
2023-10-29T17:44:56.839Z,98669.84
2023-10-29T17:47:25.431Z,98676.06
2023-10-29T17:49:52.490Z,98670.13
2023-10-29T17:52:21.844Z,98672.66
2023-10-29T17:54:50.169Z,98677.38
2023-10-29T17:57:18.501Z,98671.91
2023-10-29T17:59:46.466Z,98679.31
2023-10-29T18:02:14.440Z,98675.00
2023-10-29T18:04:42.385Z,98676.09
2023-10-29T18:07:10.334Z,98693.53
2023-10-29T18:09:39.606Z,98697.69
2023-10-29T18:12:08.988Z,98699.28
2023-10-29T18:14:37.517Z,98693.16
2023-10-29T18:17:05.708Z,98699.28
2023-10-29T18:19:33.623Z,98701.72
2023-10-29T18:22:01.617Z,98709.16
2023-10-29T18:24:29.537Z,98709.59
2023-10-29T18:26:59.803Z,98723.94
2023-10-29T18:29:27.753Z,98716.16
2023-10-29T18:31:56.116Z,98725.66
2023-10-29T18:34:24.073Z,98718.66
2023-10-29T18:36:52.222Z,98723.00
2023-10-29T18:39:20.350Z,98717.72
2023-10-29T18:41:48.509Z,98726.97
2023-10-29T18:44:17.874Z,98731.47
2023-10-29T18:46:45.823Z,98741.16
2023-10-29T18:49:13.878Z,98728.19
2023-10-29T18:51:41.824Z,98738.44
2023-10-29T18:54:09.826Z,98738.88
2023-10-29T18:56:37.762Z,98743.94
2023-10-29T18:59:06.146Z,98745.34
2023-10-29T19:01:35.996Z,98749.00
2023-10-29T19:04:04.344Z,98752.66
2023-10-29T19:06:32.413Z,98754.69
2023-10-29T19:09:01.051Z,98751.06
2023-10-29T19:11:33.124Z,98755.88
2023-10-29T19:14:01.085Z,98748.50
2023-10-29T19:16:29.019Z,98759.16
2023-10-29T19:18:58.449Z,98756.03
2023-10-29T19:21:26.582Z,98770.78
2023-10-29T19:23:54.703Z,98770.19
2023-10-29T19:26:22.695Z,98779.63
2023-10-29T19:28:51.220Z,98775.31
2023-10-29T19:31:26.467Z,98783.91
2023-10-29T19:33:55.805Z,98787.41
2023-10-29T19:36:25.580Z,98785.97
2023-10-29T19:38:53.789Z,98791.75
2023-10-29T19:41:21.737Z,98792.78
2023-10-29T19:43:49.753Z,98795.47
2023-10-29T19:46:17.743Z,98795.28
2023-10-29T19:48:45.742Z,98805.38
2023-10-29T19:51:13.705Z,98815.00
2023-10-29T19:53:43.005Z,98810.09
2023-10-29T19:56:12.668Z,98825.25
2023-10-29T19:58:41.096Z,98815.84
2023-10-29T20:01:09.901Z,98829.16
2023-10-29T20:03:38.102Z,98815.47
2023-10-29T20:06:09.467Z,98821.63
2023-10-29T20:08:37.510Z,98830.22
2023-10-29T20:11:10.336Z,98826.50
2023-10-29T20:13:38.371Z,98829.78
2023-10-29T20:16:07.105Z,98836.16
2023-10-29T20:18:35.643Z,98832.28
2023-10-29T20:21:03.720Z,98837.78
2023-10-29T20:23:31.854Z,98844.97
2023-10-29T20:26:04.247Z,98847.63
2023-10-29T20:28:33.678Z,98843.78
2023-10-29T20:31:01.608Z,98860.16
2023-10-29T20:33:29.863Z,98848.66
2023-10-29T20:35:58.094Z,98854.44
2023-10-29T20:38:26.919Z,98854.88
2023-10-29T20:40:54.886Z,98855.88
2023-10-29T20:43:22.873Z,98859.41
2023-10-29T20:45:54.005Z,98871.59
2023-10-29T20:48:22.699Z,98879.00
2023-10-29T20:50:54.570Z,98877.19
2023-10-29T20:53:22.715Z,98871.88
2023-10-29T20:55:50.612Z,98874.13
2023-10-29T20:58:18.601Z,98884.16
2023-10-29T21:00:48.585Z,98875.16
2023-10-29T21:03:18.136Z,98880.28
2023-10-29T21:05:47.060Z,98883.97
2023-10-29T21:08:15.208Z,98879.25
2023-10-29T21:10:43.199Z,98874.31
2023-10-29T21:13:11.157Z,98878.22
2023-10-29T21:15:41.517Z,98880.28
2023-10-29T21:18:09.847Z,98876.56
2023-10-29T21:20:39.179Z,98878.00
2023-10-29T21:23:08.082Z,98891.13
2023-10-29T21:25:37.844Z,98894.00
2023-10-29T21:28:06.164Z,98896.47
2023-10-29T21:30:35.206Z,98899.31
2023-10-29T21:33:03.505Z,98905.25
2023-10-29T21:35:31.516Z,98905.88
2023-10-29T21:38:01.616Z,98900.34
2023-10-29T21:40:29.738Z,98914.06
2023-10-29T21:42:57.657Z,98912.81
2023-10-29T21:45:25.707Z,98923.88
2023-10-29T21:47:53.664Z,98921.81
2023-10-29T21:50:21.623Z,98929.59
2023-10-29T21:52:49.553Z,98924.44
2023-10-29T21:55:18.915Z,98923.22
2023-10-29T21:57:46.875Z,98932.03
2023-10-29T22:00:15.645Z,98922.19
2023-10-29T22:02:43.823Z,98924.84
2023-10-29T22:05:11.771Z,98934.91
2023-10-29T22:07:39.731Z,98925.44
2023-10-29T22:10:08.771Z,98934.88
2023-10-29T22:12:38.845Z,98928.31
2023-10-29T22:15:08.045Z,98930.75
2023-10-29T22:17:36.016Z,98929.94
2023-10-29T22:20:03.999Z,98939.56
2023-10-29T22:22:31.914Z,98935.28
2023-10-29T22:25:00.166Z,98935.03
2023-10-29T22:27:28.210Z,98935.28
2023-10-29T22:29:57.780Z,98927.50
2023-10-29T22:32:25.804Z,98935.69
2023-10-29T22:34:53.717Z,98933.66
2023-10-29T22:37:21.694Z,98943.50
2023-10-29T22:39:49.924Z,98953.75
2023-10-29T22:42:18.083Z,98960.75
2023-10-29T22:44:46.031Z,98973.84
2023-10-29T22:47:15.407Z,98967.50
2023-10-29T22:49:43.337Z,98972.41
2023-10-29T22:52:11.228Z,98967.69
2023-10-29T22:54:39.335Z,98977.13
2023-10-29T22:57:07.305Z,98973.19
2023-10-29T22:59:35.462Z,98984.47
2023-10-29T23:02:05.444Z,98981.59
2023-10-29T23:04:35.051Z,98985.28
2023-10-29T23:07:03.588Z,98991.44
2023-10-29T23:09:31.563Z,98997.59
2023-10-29T23:11:59.513Z,99000.06
2023-10-29T23:14:27.453Z,98994.72
2023-10-29T23:16:55.449Z,99011.53
2023-10-29T23:19:23.753Z,99019.53
2023-10-29T23:21:53.065Z,99019.75
2023-10-29T23:24:21.135Z,99019.28
2023-10-29T23:26:49.115Z,99027.94
2023-10-29T23:29:17.083Z,99038.59
2023-10-29T23:31:45.180Z,99038.59
2023-10-29T23:34:13.186Z,99035.28
2023-10-29T23:36:41.215Z,99035.28
2023-10-29T23:39:10.880Z,99042.09
2023-10-29T23:41:38.857Z,99038.19
2023-10-29T23:44:07.258Z,99045.59
2023-10-29T23:46:35.270Z,99047.88
2023-10-29T23:49:03.209Z,99046.44
2023-10-29T23:51:31.184Z,99049.75
2023-10-29T23:53:59.148Z,99044.44
2023-10-29T23:56:28.557Z,99052.22
2023-10-29T23:58:56.513Z,99054.47
